This is the latest recevied weather packets stored in our database for station/object N3TUQ-2. If no packets are shown the sender has not sent any weather packets the latest 10 day(s).
| Time | Temp. | Humidity | Pressure | Rain* | Wind** | Luminosity | Snow |
|---|---|---|---|---|---|---|---|
| 1788476152 | 24.44° C | 88% | 1013.4 hPa | 0 mm | - | - | - |
| 1788475372 | 24.44° C | 87% | 1013.4 hPa | 0 mm | - | - | - |
| 1788474591 | 25° C | 86% | 1013.1 hPa | 0 mm | - | - | - |
| 1788473811 | 26.11° C | 85% | 1012.8 hPa | 0 mm | - | - | - |
| 1788473031 | 26.67° C | 81% | 1012.5 hPa | 0 mm | - | - | - |
| 1788472252 | 27.22° C | 79% | 1012.3 hPa | 0 mm | - | - | - |
| 1788471472 | 27.78° C | 78% | 1012.5 hPa | 0 mm | - | - | - |
| 1788470692 | 28.33° C | 73% | 1012.6 hPa | 0 mm | - | - | - |
| 1788469131 | 29.44° C | 72% | 1012.3 hPa | 0 mm | - | - | - |
| 1788468351 | 28.89° C | 71% | 1012.3 hPa | 0 mm | - | - | - |
| 1788467571 | 28.33° C | 72% | 1012.5 hPa | 0 mm | - | - | - |
| 1788466792 | 27.78° C | 75% | 1012.6 hPa | 0 mm | - | - | - |
| 1788465231 | 28.33° C | 73% | 1013 hPa | 0 mm | - | - | - |
| 1788464451 | 28.33° C | 73% | 1013 hPa | 0 mm | - | - | - |
| 1788463671 | 29.44° C | 70% | 1013.1 hPa | 0 mm | - | - | - |
| 1788462891 | 30° C | 67% | 1013.2 hPa | 0 mm | - | - | - |
| 1788462112 | 30° C | 69% | 1013.3 hPa | 0 mm | - | - | - |
| 1788461332 | 29.44° C | 68% | 1013.4 hPa | 0 mm | - | - | - |
| 1788460551 | 29.44° C | 71% | 1013.4 hPa | 0 mm | - | - | - |
| 1788459771 | 28.89° C | 68% | 1013.5 hPa | 0 mm | - | - | - |
| 1788458991 | 28.33° C | 71% | 1013.8 hPa | 0 mm | - | - | - |
| 1788458211 | 28.33° C | 68% | 1013.9 hPa | 0 mm | - | - | - |
| 1788457431 | 28.33° C | 69% | 1014 hPa | 0 mm | - | - | - |
| 1788456652 | 28.33° C | 72% | 1014.3 hPa | 0 mm | - | - | - |
| 1788455871 | 27.78° C | 75% | 1014.1 hPa | 0 mm | - | - | - |
* Rain latest hour (hover to see other rain measurements)
** Current wind speed in m/s (hover to see current wind gust speed)